createdAt,value
2022-11-24T00:02:18.628Z,99997.69
2022-11-24T00:04:45.310Z,99996.09
2022-11-24T00:07:11.899Z,100006.19
2022-11-24T00:09:38.482Z,100009.00
2022-11-24T00:12:05.016Z,100015.44
2022-11-24T00:14:31.982Z,100010.59
2022-11-24T00:16:58.796Z,100009.00
2022-11-24T00:19:25.571Z,100011.84
2022-11-24T00:21:52.178Z,100013.06
2022-11-24T00:24:18.751Z,100017.03
2022-11-24T00:26:45.260Z,100015.44
2022-11-24T00:29:12.146Z,100021.44
2022-11-24T00:31:40.944Z,100012.97
2022-11-24T00:34:11.131Z,100010.59
2022-11-24T00:36:38.677Z,100022.69
2022-11-24T00:39:07.471Z,100012.16
2022-11-24T00:41:34.537Z,100020.19
2022-11-24T00:44:01.212Z,100019.41
2022-11-24T00:46:28.252Z,100020.97
2022-11-24T00:48:55.662Z,100025.06
2022-11-24T00:51:26.430Z,100025.84
2022-11-24T00:53:53.319Z,100031.50
2022-11-24T00:56:19.837Z,100037.94
2022-11-24T00:58:46.397Z,100043.63
2022-11-24T01:01:19.192Z,100044.38
2022-11-24T01:03:47.328Z,100044.38
2022-11-24T01:06:19.905Z,100043.16
2022-11-24T01:08:47.287Z,100045.16
2022-11-24T01:11:20.708Z,100052.41
2022-11-24T01:13:52.122Z,100052.41
2022-11-24T01:16:26.806Z,100054.00
2022-11-24T01:18:54.118Z,100059.66
2022-11-24T01:21:21.398Z,100054.78
2022-11-24T01:23:48.003Z,100051.63
2022-11-24T01:26:19.913Z,100054.78
2022-11-24T01:28:47.835Z,100058.38
2022-11-24T01:31:15.672Z,100049.91
2022-11-24T01:33:42.501Z,100047.88
2022-11-24T01:36:09.142Z,100045.84
2022-11-24T01:38:35.695Z,100057.16
2022-11-24T01:41:08.395Z,100048.19
2022-11-24T01:43:38.500Z,100054.63
2022-11-24T01:46:26.905Z,100047.53
2022-11-24T01:49:03.184Z,100053.84
2022-11-24T01:51:33.588Z,100044.53
2022-11-24T01:54:16.422Z,100061.88
2022-11-24T01:56:47.262Z,100056.22
2022-11-24T01:59:15.767Z,100063.44
2022-11-24T02:01:43.141Z,100059.06
2022-11-24T02:04:16.020Z,100072.28
2022-11-24T02:06:45.174Z,100071.94
2022-11-24T02:09:19.978Z,100063.44
2022-11-24T02:11:47.462Z,100066.72
2022-11-24T02:14:18.004Z,100068.16
2022-11-24T02:16:49.198Z,100068.16
2022-11-24T02:19:48.249Z,100074.63
2022-11-24T02:22:21.564Z,100075.88
2022-11-24T02:24:55.034Z,100075.41
2022-11-24T02:27:21.575Z,100081.53
2022-11-24T02:29:49.285Z,100085.16
2022-11-24T02:32:16.338Z,100086.72
2022-11-24T02:34:42.955Z,100077.78
2022-11-24T02:37:09.475Z,100079.84
2022-11-24T02:39:36.174Z,100078.56
2022-11-24T02:42:12.960Z,100082.66
2022-11-24T02:44:45.269Z,100078.56
2022-11-24T02:47:13.549Z,100080.16
2022-11-24T02:49:40.705Z,100077.31
2022-11-24T02:52:07.552Z,100078.56
2022-11-24T02:54:34.357Z,100075.41
2022-11-24T02:57:01.125Z,100076.19
2022-11-24T02:59:27.782Z,100084.22
2022-11-24T03:01:54.429Z,100081.06
2022-11-24T03:04:21.036Z,100081.84
2022-11-24T03:06:47.566Z,100083.13
2022-11-24T03:09:14.067Z,100087.50
2022-11-24T03:11:40.777Z,100093.97
2022-11-24T03:14:08.133Z,100093.97
2022-11-24T03:16:34.759Z,100092.41
2022-11-24T03:19:01.701Z,100088.31
2022-11-24T03:21:28.264Z,100094.44
2022-11-24T03:23:54.929Z,100100.88
2022-11-24T03:26:23.237Z,100100.56
2022-11-24T03:28:49.887Z,100100.56
2022-11-24T03:31:16.627Z,100108.59
2022-11-24T03:33:43.269Z,100097.38
2022-11-24T03:36:10.033Z,100106.22
2022-11-24T03:38:36.742Z,100101.50
2022-11-24T03:41:03.687Z,100105.88
2022-11-24T03:43:30.389Z,100111.06
2022-11-24T03:45:57.025Z,100118.47
2022-11-24T03:48:23.739Z,100114.03
2022-11-24T03:50:58.852Z,100131.34
2022-11-24T03:57:43.563Z,100140.75
2022-11-24T04:00:11.252Z,100137.16
2022-11-24T04:02:38.211Z,100132.88
2022-11-24T04:05:05.892Z,100141.56
2022-11-24T04:07:32.402Z,100136.38
2022-11-24T04:09:59.028Z,100146.41
2022-11-24T04:12:43.934Z,100147.22
2022-11-24T04:15:16.343Z,100149.25
2022-11-24T04:17:43.901Z,100152.41
2022-11-24T04:20:12.389Z,100152.41
2022-11-24T04:22:39.129Z,100157.28
2022-11-24T04:25:06.868Z,100162.47
2022-11-24T04:27:34.333Z,100155.56
2022-11-24T04:30:00.855Z,100162.47
2022-11-24T04:32:27.514Z,100162.47
2022-11-24T04:34:54.075Z,100175.69
2022-11-24T04:37:20.649Z,100178.53
2022-11-24T04:39:47.212Z,100174.91
2022-11-24T04:42:13.795Z,100181.34
2022-11-24T04:44:40.361Z,100176.81
2022-11-24T04:47:07.121Z,100178.88
2022-11-24T04:49:33.687Z,100183.25
2022-11-24T04:52:00.212Z,100187.69
2022-11-24T04:54:26.765Z,100189.28
2022-11-24T04:56:53.386Z,100196.50
2022-11-24T04:59:20.250Z,100189.59
2022-11-24T05:01:47.445Z,100198.84
2022-11-24T05:04:15.766Z,100205.31
2022-11-24T05:06:42.677Z,100196.50
2022-11-24T05:09:16.622Z,100202.47
2022-11-24T05:11:43.688Z,100207.50
2022-11-24T05:14:10.278Z,100202.16
2022-11-24T05:16:37.747Z,100209.41
2022-11-24T05:19:04.661Z,100208.13
2022-11-24T05:21:31.307Z,100210.97
2022-11-24T05:23:57.903Z,100212.53
2022-11-24T05:26:24.542Z,100212.53
2022-11-24T05:28:51.136Z,100215.38
2022-11-24T05:31:17.658Z,100212.88
2022-11-24T05:33:44.317Z,100211.75
2022-11-24T05:36:31.098Z,100216.97
2022-11-24T05:38:57.642Z,100221.72
2022-11-24T05:41:24.252Z,100227.38
2022-11-24T05:43:50.863Z,100228.16
2022-11-24T05:46:17.617Z,100236.63
2022-11-24T05:48:44.291Z,100232.56
2022-11-24T05:51:10.824Z,100239.00
2022-11-24T05:53:37.443Z,100231.75
2022-11-24T05:56:04.761Z,100234.59
2022-11-24T05:58:31.257Z,100239.31
2022-11-24T06:00:57.753Z,100239.31
2022-11-24T06:03:24.220Z,100240.09
2022-11-24T06:05:50.793Z,100250.19
2022-11-24T06:08:17.301Z,100250.19
2022-11-24T06:10:43.826Z,100249.72
2022-11-24T06:13:10.450Z,100258.22
2022-11-24T06:15:37.761Z,100265.47
2022-11-24T06:18:04.548Z,100268.75
2022-11-24T06:20:32.919Z,100270.31
2022-11-24T06:23:01.098Z,100271.47
2022-11-24T06:25:28.507Z,100267.03
2022-11-24T06:27:55.180Z,100267.03
2022-11-24T06:30:21.882Z,100262.97
2022-11-24T06:32:50.058Z,100270.22
2022-11-24T06:35:17.156Z,100270.22
2022-11-24T06:37:43.728Z,100277.44
2022-11-24T06:40:10.528Z,100282.31
2022-11-24T06:42:37.563Z,100275.88
2022-11-24T06:45:08.721Z,100284.69
2022-11-24T06:47:36.158Z,100287.06
2022-11-24T06:50:02.806Z,100289.56
2022-11-24T06:52:29.346Z,100293.50
2022-11-24T06:54:57.186Z,100300.75
2022-11-24T06:57:23.681Z,100304.38
2022-11-24T06:59:50.256Z,100310.81
2022-11-24T07:02:16.732Z,100312.88
2022-11-24T07:04:43.322Z,100313.63
2022-11-24T07:07:09.959Z,100312.88
2022-11-24T07:09:36.722Z,100321.34
2022-11-24T07:12:03.489Z,100322.63
2022-11-24T07:14:29.979Z,100314.91
2022-11-24T07:16:56.550Z,100325.47
2022-11-24T07:19:25.001Z,100322.13
2022-11-24T07:21:51.896Z,100331.44
2022-11-24T07:24:18.905Z,100335.84
2022-11-24T07:26:45.551Z,100335.50
2022-11-24T07:29:12.201Z,100337.88
2022-11-24T07:31:38.755Z,100331.44
2022-11-24T07:34:05.333Z,100338.66
2022-11-24T07:36:31.816Z,100352.38
2022-11-24T07:38:58.539Z,100362.13
2022-11-24T07:41:25.548Z,100359.63
2022-11-24T07:43:52.185Z,100360.41
2022-11-24T07:46:19.826Z,100366.88
2022-11-24T07:48:47.184Z,100364.03
2022-11-24T07:51:14.160Z,100364.34
2022-11-24T07:53:41.098Z,100364.34
2022-11-24T07:56:07.944Z,100367.19
2022-11-24T07:58:37.063Z,100370.34
2022-11-24T08:01:17.372Z,100369.56
2022-11-24T08:03:45.604Z,100374.78
2022-11-24T08:06:38.737Z,100374.78
2022-11-24T08:09:01.342Z,100373.19
2022-11-24T08:11:28.512Z,100384.84
2022-11-24T08:13:55.058Z,100385.63
2022-11-24T08:16:21.761Z,100385.19
2022-11-24T08:18:55.976Z,100388.34
2022-11-24T08:21:23.735Z,100392.75
2022-11-24T08:23:54.656Z,100399.97
2022-11-24T08:26:21.296Z,100402.81
2022-11-24T08:28:48.102Z,100406.00
2022-11-24T08:31:18.754Z,100409.19
2022-11-24T08:33:46.615Z,100406.69
2022-11-24T08:36:18.023Z,100422.44
2022-11-24T08:38:45.558Z,100412.66
2022-11-24T08:41:14.841Z,100417.09
2022-11-24T08:43:42.181Z,100413.00
2022-11-24T08:46:16.970Z,100421.50
2022-11-24T08:48:47.386Z,100422.16
2022-11-24T08:51:22.844Z,100426.59
2022-11-24T08:53:49.459Z,100431.34
2022-11-24T08:56:16.027Z,100434.50
2022-11-24T08:58:42.760Z,100431.19
2022-11-24T09:01:15.164Z,100433.56
2022-11-24T09:03:48.595Z,100435.47
2022-11-24T09:06:23.373Z,100436.63
2022-11-24T09:08:51.216Z,100439.44
2022-11-24T09:11:18.320Z,100446.22
2022-11-24T09:13:45.352Z,100439.63
2022-11-24T09:16:18.292Z,100445.63
2022-11-24T09:18:45.647Z,100445.97
2022-11-24T09:21:18.195Z,100454.47
2022-11-24T09:23:46.206Z,100463.31
2022-11-24T09:26:16.358Z,100462.84
2022-11-24T09:28:43.070Z,100464.41
2022-11-24T09:31:12.473Z,100468.38
2022-11-24T09:33:40.032Z,100473.13
2022-11-24T09:36:07.651Z,100467.44
2022-11-24T09:38:34.484Z,100463.38
2022-11-24T09:41:23.555Z,100461.78
2022-11-24T09:44:14.991Z,100470.59
2022-11-24T09:47:13.048Z,100470.94
2022-11-24T09:49:53.177Z,100474.13
2022-11-24T09:52:35.680Z,100465.94
2022-11-24T09:55:05.413Z,100462.16
2022-11-24T09:57:37.794Z,100464.53
2022-11-24T10:00:12.364Z,100472.59
2022-11-24T10:02:39.308Z,100455.84
2022-11-24T10:05:06.893Z,100472.00
2022-11-24T10:07:42.471Z,100470.75
2022-11-24T10:10:22.884Z,100473.13
2022-11-24T10:13:03.232Z,100475.50
2022-11-24T10:15:47.944Z,100479.88
2022-11-24T10:18:21.525Z,100481.03
2022-11-24T10:21:21.810Z,100477.72
2022-11-24T10:24:25.793Z,100484.19
2022-11-24T10:27:09.635Z,100490.16
2022-11-24T10:29:40.408Z,100486.88
2022-11-24T10:32:15.114Z,100483.91
2022-11-24T10:34:45.079Z,100487.53
2022-11-24T10:37:11.559Z,100490.69
2022-11-24T10:39:50.478Z,100496.72
2022-11-24T10:42:36.930Z,100503.94
2022-11-24T10:45:11.162Z,100491.69
2022-11-24T10:47:38.683Z,100499.25
2022-11-24T10:50:22.915Z,100502.09
2022-11-24T10:52:58.144Z,100499.59
2022-11-24T10:55:24.820Z,100500.25
2022-11-24T10:57:51.467Z,100501.03
2022-11-24T11:00:21.028Z,100500.09
2022-11-24T11:02:49.052Z,100496.81
2022-11-24T11:05:27.760Z,100499.97
2022-11-24T11:08:10.575Z,100508.47
2022-11-24T11:10:37.237Z,100510.38
2022-11-24T11:13:29.421Z,100517.66
2022-11-24T11:15:58.391Z,100503.78
2022-11-24T11:18:32.832Z,100510.22
2022-11-24T11:21:02.459Z,100509.75
2022-11-24T11:23:32.577Z,100519.88
2022-11-24T11:26:20.103Z,100519.41
2022-11-24T11:34:48.014Z,100526.53
2022-11-24T11:37:15.808Z,100523.22
2022-11-24T11:39:48.902Z,100526.69
2022-11-24T11:45:27.834Z,100530.34
2022-11-24T11:48:16.434Z,100539.19
2022-11-24T11:51:22.400Z,100540.31
2022-11-24T11:54:22.809Z,100535.41
2022-11-24T11:57:14.480Z,100541.72
2022-11-24T12:00:02.642Z,100543.31
2022-11-24T12:02:51.703Z,100546.47
2022-11-24T12:05:29.303Z,100542.69
2022-11-24T12:08:20.719Z,100555.97
2022-11-24T12:10:59.663Z,100559.94
2022-11-24T12:13:41.630Z,100560.72
2022-11-24T12:16:27.717Z,100565.16
2022-11-24T12:19:37.668Z,100562.63
2022-11-24T12:22:35.199Z,100570.22
2022-11-24T12:25:20.897Z,100566.13
2022-11-24T12:28:13.878Z,100565.97
2022-11-24T12:30:51.142Z,100568.03
2022-11-24T12:33:46.247Z,100561.06
2022-11-24T12:36:47.700Z,100564.22
2022-11-24T12:39:20.063Z,100576.25
2022-11-24T12:42:08.606Z,100579.41
2022-11-24T12:45:13.122Z,100576.56
2022-11-24T12:47:57.055Z,100575.63
2022-11-24T12:50:29.142Z,100579.28
2022-11-24T12:53:13.897Z,100590.16
2022-11-24T12:55:42.075Z,100586.38
2022-11-24T12:58:21.455Z,100596.50
2022-11-24T13:01:03.220Z,100597.16
2022-11-24T13:03:56.303Z,100599.19
2022-11-24T13:06:36.284Z,100604.72
2022-11-24T13:09:10.982Z,100599.84
2022-11-24T13:11:39.091Z,100601.28
2022-11-24T13:14:07.607Z,100602.22
2022-11-24T13:16:37.177Z,100605.22
2022-11-24T13:19:13.912Z,100601.91
2022-11-24T13:22:00.996Z,100606.03
2022-11-24T13:24:30.840Z,100610.78
2022-11-24T13:27:27.089Z,100613.63
2022-11-24T13:29:54.556Z,100621.19
2022-11-24T13:32:21.200Z,100618.69
2022-11-24T13:34:49.736Z,100620.25
2022-11-24T13:37:31.293Z,100622.63
2022-11-24T13:40:11.370Z,100620.59
2022-11-24T13:42:56.579Z,100625.47
2022-11-24T13:45:49.593Z,100634.31
2022-11-24T13:48:19.279Z,100630.53
2022-11-24T13:50:53.226Z,100637.03
2022-11-24T13:53:48.109Z,100635.44
2022-11-24T13:56:17.543Z,100644.88
2022-11-24T13:58:47.716Z,100653.59
2022-11-24T14:01:26.802Z,100659.75
2022-11-24T14:04:31.131Z,100662.13
2022-11-24T14:07:07.402Z,100658.34
2022-11-24T14:09:43.528Z,100659.13
2022-11-24T14:12:10.195Z,100656.28
2022-11-24T14:14:37.143Z,100662.28
2022-11-24T14:17:12.953Z,100666.72
2022-11-24T14:19:40.087Z,100669.09
2022-11-24T14:22:14.953Z,100669.88
2022-11-24T14:24:45.228Z,100669.88
2022-11-24T14:27:17.534Z,100667.34
2022-11-24T14:29:54.206Z,100673.03
2022-11-24T14:32:21.990Z,100679.53
2022-11-24T14:34:48.653Z,100681.09
2022-11-24T14:37:15.255Z,100689.16
2022-11-24T14:39:42.751Z,100689.16
2022-11-24T14:42:21.425Z,100693.28
2022-11-24T14:44:56.411Z,100697.22
2022-11-24T14:47:38.593Z,100706.22
2022-11-24T14:50:12.195Z,100701.66
2022-11-24T14:52:46.365Z,100700.53
2022-11-24T14:55:24.622Z,100702.75
2022-11-24T14:57:51.176Z,100701.47
2022-11-24T15:00:27.024Z,100707.97
2022-11-24T15:02:56.102Z,100706.22
2022-11-24T15:05:25.517Z,100719.97
2022-11-24T15:08:02.535Z,100716.34
2022-11-24T15:10:34.877Z,100714.28
2022-11-24T15:13:16.243Z,100725.19
2022-11-24T15:15:48.214Z,100720.78
2022-11-24T15:18:33.097Z,100720.78
2022-11-24T15:20:59.779Z,100729.63
2022-11-24T15:23:28.963Z,100731.22
2022-11-24T15:25:57.476Z,100726.31
2022-11-24T15:28:25.984Z,100730.41
2022-11-24T15:31:06.937Z,100726.47
2022-11-24T15:33:33.542Z,100734.06
2022-11-24T15:36:00.492Z,100745.44
2022-11-24T15:38:27.352Z,100745.44
2022-11-24T15:40:55.314Z,100745.91
2022-11-24T15:43:28.163Z,100749.06
2022-11-24T15:45:54.906Z,100747.00
2022-11-24T15:48:22.000Z,100747.00
2022-11-24T15:50:49.675Z,100748.28
2022-11-24T15:53:21.397Z,100746.69
2022-11-24T15:55:48.763Z,100749.84
2022-11-24T15:58:15.401Z,100744.16
2022-11-24T16:00:43.577Z,100755.53
2022-11-24T16:03:44.648Z,100753.03
2022-11-24T16:05:57.522Z,100751.44
2022-11-24T16:08:24.169Z,100748.59
2022-11-24T16:10:51.301Z,100745.75
2022-11-24T16:13:17.858Z,100754.28
2022-11-24T16:15:46.140Z,100736.91
2022-11-24T16:18:15.060Z,100742.59
2022-11-24T16:20:41.652Z,100736.25
2022-11-24T16:23:08.441Z,100741.47
2022-11-24T16:25:35.122Z,100755.69
2022-11-24T16:28:01.640Z,100757.38
2022-11-24T16:30:28.188Z,100751.38
2022-11-24T16:32:54.879Z,100762.75
2022-11-24T16:35:21.474Z,100768.13
2022-11-24T16:37:48.948Z,100766.53
2022-11-24T16:40:15.547Z,100772.34
2022-11-24T16:42:42.077Z,100759.41
2022-11-24T16:45:12.766Z,100761.91
2022-11-24T16:47:41.112Z,100765.22
2022-11-24T16:50:09.154Z,100766.94
2022-11-24T16:52:35.771Z,100767.09
2022-11-24T16:55:02.742Z,100774.81
2022-11-24T16:57:29.248Z,100777.81
2022-11-24T16:59:55.715Z,100774.63
2022-11-24T17:02:22.373Z,100780.00
2022-11-24T17:04:52.147Z,100780.91
2022-11-24T17:07:20.306Z,100786.59
2022-11-24T17:09:47.170Z,100788.78
2022-11-24T17:12:13.661Z,100774.69
2022-11-24T17:14:40.183Z,100787.34
2022-11-24T17:17:06.674Z,100780.06
2022-11-24T17:19:33.185Z,100791.09
2022-11-24T17:21:59.752Z,100789.97
2022-11-24T17:24:26.419Z,100790.44
2022-11-24T17:26:53.274Z,100793.41
2022-11-24T17:29:19.927Z,100787.41
2022-11-24T17:31:46.658Z,100788.34
2022-11-24T17:34:13.459Z,100783.13
2022-11-24T17:36:41.460Z,100787.66
2022-11-24T17:39:08.118Z,100791.41
2022-11-24T17:41:34.725Z,100789.84
2022-11-24T17:44:01.517Z,100791.09
2022-11-24T17:46:30.285Z,100796.44
2022-11-24T17:48:56.891Z,100794.84
2022-11-24T17:51:25.416Z,100802.28
2022-11-24T17:53:54.026Z,100810.44
2022-11-24T17:56:25.624Z,100806.50
2022-11-24T17:58:54.327Z,100814.53
2022-11-24T18:01:21.733Z,100810.56
2022-11-24T18:03:53.216Z,100833.28
2022-11-24T18:06:20.875Z,100831.34
2022-11-24T18:08:47.663Z,100829.78
2022-11-24T18:11:17.982Z,100826.28
2022-11-24T18:16:33.033Z,100831.94
2022-11-24T18:19:08.886Z,100829.69
2022-11-24T18:21:40.618Z,100831.28
2022-11-24T18:24:08.899Z,100840.28
2022-11-24T18:26:35.857Z,100841.97
2022-11-24T18:29:02.496Z,100848.44
2022-11-24T18:31:31.035Z,100854.56
2022-11-24T18:33:57.629Z,100852.63
2022-11-24T18:36:30.075Z,100851.41
2022-11-24T18:39:04.748Z,100860.81
2022-11-24T18:41:31.816Z,100856.97
2022-11-24T18:44:02.130Z,100856.97
2022-11-24T18:46:28.752Z,100856.19
2022-11-24T18:48:55.248Z,100861.09
2022-11-24T18:51:23.059Z,100866.75
2022-11-24T18:53:54.421Z,100864.38
2022-11-24T18:56:21.038Z,100863.56
2022-11-24T18:58:47.691Z,100860.41
2022-11-24T19:01:16.595Z,100862.44
2022-11-24T19:03:51.620Z,100866.53
2022-11-24T19:06:24.612Z,100872.66
2022-11-24T19:08:53.720Z,100873.94
2022-11-24T19:11:22.950Z,100876.41
2022-11-24T19:13:49.814Z,100869.72
2022-11-24T19:16:18.467Z,100871.31
2022-11-24T19:18:50.251Z,100860.88
2022-11-24T19:21:20.169Z,100866.22
2022-11-24T19:23:46.867Z,100865.75
2022-11-24T19:26:15.027Z,100875.38
2022-11-24T19:28:41.748Z,100868.72
2022-11-24T19:31:12.075Z,100874.72
2022-11-24T19:33:39.426Z,100874.72
2022-11-24T19:36:09.025Z,100869.63
2022-11-24T19:38:35.649Z,100875.31
2022-11-24T19:41:07.339Z,100884.13
2022-11-24T19:43:34.768Z,100877.78
2022-11-24T19:46:05.717Z,100885.38
2022-11-24T19:48:43.330Z,100883.81
2022-11-24T19:51:18.069Z,100889.47
2022-11-24T19:53:45.620Z,100890.84
2022-11-24T19:56:14.939Z,100904.00
2022-11-24T19:58:41.963Z,100906.38
2022-11-24T20:01:11.325Z,100906.38
2022-11-24T20:03:39.147Z,100910.47
2022-11-24T20:06:07.090Z,100909.22
2022-11-24T20:08:36.051Z,100900.84
2022-11-24T20:11:11.671Z,100911.28
2022-11-24T20:13:40.046Z,100914.44
2022-11-24T20:16:10.045Z,100918.06
2022-11-24T20:18:43.949Z,100912.84
2022-11-24T20:21:18.710Z,100915.22
2022-11-24T20:23:47.251Z,100910.34
2022-11-24T20:26:23.080Z,100911.94
2022-11-24T20:28:51.330Z,100910.34
2022-11-24T20:31:21.081Z,100917.63
2022-11-24T20:33:48.133Z,100924.19
2022-11-24T20:36:19.134Z,100920.13
2022-11-24T20:38:47.120Z,100930.19
2022-11-24T20:41:16.663Z,100931.81
2022-11-24T20:43:44.461Z,100929.88
2022-11-24T20:46:16.330Z,100932.38
2022-11-24T20:48:43.241Z,100939.28
2022-11-24T20:51:15.558Z,100944.88
2022-11-24T20:53:42.112Z,100941.34
2022-11-24T20:56:12.919Z,100949.72
2022-11-24T20:58:40.255Z,100943.72
2022-11-24T21:01:14.906Z,100942.94
2022-11-24T21:03:43.444Z,100944.16
2022-11-24T21:06:12.400Z,100945.84
2022-11-24T21:08:41.439Z,100947.13
2022-11-24T21:11:11.122Z,100951.19
2022-11-24T21:13:39.267Z,100958.91
2022-11-24T21:16:15.203Z,100952.44
2022-11-24T21:18:43.507Z,100952.88
2022-11-24T21:21:10.453Z,100947.31
2022-11-24T21:23:37.129Z,100948.94
2022-11-24T21:26:07.458Z,100947.00
2022-11-24T21:28:36.850Z,100943.81
2022-11-24T21:31:15.262Z,100958.34
2022-11-24T21:33:50.087Z,100966.06
2022-11-24T21:36:24.642Z,100972.19
2022-11-24T21:38:55.839Z,100961.75
2022-11-24T21:41:24.724Z,100954.81
2022-11-24T21:43:52.755Z,100967.06
2022-11-24T21:46:19.333Z,100972.75
2022-11-24T21:48:46.009Z,100960.72
2022-11-24T21:51:17.907Z,100975.59
2022-11-24T21:53:49.951Z,100980.91
2022-11-24T21:56:19.040Z,100975.22
2022-11-24T21:58:50.639Z,100987.00
2022-11-24T22:01:19.239Z,100976.13
2022-11-24T22:03:46.047Z,100975.44
2022-11-24T22:06:13.225Z,100986.69
2022-11-24T22:08:39.844Z,100986.78
2022-11-24T22:11:17.955Z,100991.19
2022-11-24T22:13:44.881Z,101001.75
2022-11-24T22:16:20.295Z,100989.38
2022-11-24T22:18:47.433Z,100976.66
2022-11-24T22:21:16.393Z,100995.84
2022-11-24T22:23:43.861Z,100990.97
2022-11-24T22:26:14.508Z,100994.59
2022-11-24T22:28:42.444Z,100990.97
2022-11-24T22:31:12.228Z,100991.09
2022-11-24T22:33:39.289Z,100990.25
2022-11-24T22:36:06.707Z,101000.38
2022-11-24T22:38:34.661Z,101000.81
2022-11-24T22:41:02.913Z,101000.03
2022-11-24T22:43:31.738Z,100997.66
2022-11-24T22:46:02.966Z,100996.84
2022-11-24T22:48:29.568Z,100993.22
2022-11-24T22:51:01.753Z,100995.25
2022-11-24T22:53:28.270Z,100993.66
2022-11-24T22:55:54.762Z,100988.44
2022-11-24T22:58:21.278Z,100991.28
2022-11-24T23:00:47.742Z,100983.22
2022-11-24T23:03:14.311Z,100972.69
2022-11-24T23:05:40.804Z,100973.91
2022-11-24T23:08:07.285Z,100983.66
2022-11-24T23:10:33.743Z,100982.09
2022-11-24T23:13:00.293Z,100978.00
2022-11-24T23:15:26.851Z,100979.69
2022-11-24T23:17:53.369Z,100983.31
2022-11-24T23:20:19.955Z,100976.88
2022-11-24T23:22:46.507Z,100972.88
2022-11-24T23:25:13.070Z,100970.84
2022-11-24T23:27:39.596Z,100967.22
2022-11-24T23:30:06.787Z,100971.28
2022-11-24T23:32:33.252Z,100972.22
2022-11-24T23:34:59.740Z,100970.94
2022-11-24T23:37:39.348Z,100967.31
2022-11-24T23:40:12.901Z,100962.09
2022-11-24T23:42:39.426Z,100963.34
2022-11-24T23:45:07.950Z,100961.75
2022-11-24T23:47:34.403Z,100967.06
2022-11-24T23:50:01.041Z,100964.59
2022-11-24T23:52:30.415Z,100965.03
2022-11-24T23:54:56.940Z,100958.22
2022-11-24T23:57:23.522Z,100962.66
2022-11-24T23:59:49.992Z,100952.56
